Weather reports worldwide

Advertisment
Kinbrace, United Kingdom (99016): temperature & dewpoint: 18.06.2017 04:00:00 - 24.06.2017 04:00:00 (BST)Kinbrace, United Kingdom (99016): temperature 5cm: 18.06.2017 04:00:00 - 24.06.2017 04:00:00 (BST)Kinbrace, United Kingdom (99016): wind speed & gusts: 18.06.2017 04:00:00 - 24.06.2017 04:00:00 (BST)Kinbrace, United Kingdom (99016): wind direction: 18.06.2017 04:00:00 - 24.06.2017 04:00:00 (BST)Kinbrace, United Kingdom (99016): visibility: 18.06.2017 04:00:00 - 24.06.2017 04:00:00 (BST)Kinbrace, United Kingdom (99016): precipitation: 18.06.2017 04:00:00 - 24.06.2017 04:00:00 (BST)
Date & Time tt [°C] td [°C] tt 5cm [°C] ff [km/h] ff [kn] fx [km/h] fx [kn] dd vv [km] rr [mm]
24.06.2017 04:00:00 - - - - - - - - - 0,0
24.06.2017 03:00:00 8,9 6,2 - 15 8 - - WSW - 0,0
24.06.2017 02:00:00 9,6 6,3 - 16 9 - - W - 0,0
24.06.2017 01:00:00 9,6 5,7 - 13 7 - - WSW - 0,0
24.06.2017 00:00:00 10,2 5,8 - 16 9 - - WSW - 0,0
23.06.2017 23:00:00 10,7 6,3 - 16 9 - - W - 0,0
23.06.2017 22:00:00 11,4 6,1 - 16 9 - - WSW 10 0,0
23.06.2017 21:00:00 11,9 5,3 - 24 13 - - W - 0,0
23.06.2017 20:00:00 12,1 6,1 - 22 12 50 27 W - 0,0
23.06.2017 19:00:00 12,2 7,1 - 22 12 46 25 W - 0,0
23.06.2017 18:00:00 13,2 5,3 - 34 18 54 29 WNW - 0,0
23.06.2017 17:00:00 13,4 6,6 - 34 18 55 30 W - 0,0
23.06.2017 16:00:00 15,7 6,8 - 31 17 57 31 W - 0,0
23.06.2017 15:00:00 15,2 7,2 - 26 14 52 28 W - 0,0
23.06.2017 14:00:00 16,0 6,9 - 34 18 54 29 W - 0,0
23.06.2017 13:00:00 13,8 8,0 - 22 12 - - WNW - 0,0
23.06.2017 12:00:00 14,9 9,9 - 29 16 50 27 W - 0,0
23.06.2017 11:00:00 15,2 10,4 - 41 22 59 32 W - 0,0
23.06.2017 10:00:00 13,2 10,2 - 24 13 54 29 W 0,9 0,0
23.06.2017 09:00:00 13,1 10,2 - 21 11 46 25 W - 0,4
23.06.2017 08:00:00 13,6 12,0 - 18 10 - - SSW - 0,0
23.06.2017 07:00:00 13,2 10,9 - 22 12 - - S - 0,0
23.06.2017 06:00:00 12,5 10,5 - 18 10 - - S - 0,0
23.06.2017 05:00:00 12,8 10,2 - 24 13 - - SE - 0,0
23.06.2017 04:00:00 12,0 10,3 - 22 12 - - SSE - 0,0
23.06.2017 03:00:00 12,1 10,5 - 26 14 - - SSE - 0,0
23.06.2017 02:00:00 11,9 10,4 - 24 13 - - SSE - 0,2
23.06.2017 01:00:00 11,7 10,4 - 24 13 - - SSE - 0,2
23.06.2017 00:00:00 11,9 10,5 - 21 11 - - SSE - 0,4
22.06.2017 23:00:00 12,2 11,1 - 13 7 - - SSE - 0,2
22.06.2017 22:00:00 12,1 10,7 - 11 6 - - S - 0,4
22.06.2017 21:00:00 14,0 9,9 - 15 8 - - SSW - 0,0
22.06.2017 20:00:00 15,0 9,8 - 8 4 - - SSW - 0,0
22.06.2017 19:00:00 15,7 9,4 - 9 5 - - SW - 0,0
22.06.2017 18:00:00 16,8 8,7 - 13 7 - - W - 0,0
22.06.2017 17:00:00 17,4 8,6 - 9 5 - - W - 0,0
22.06.2017 16:00:00 18,2 8,3 - 15 8 - - W - 0,0
22.06.2017 15:00:00 17,1 10,0 - 16 9 - - W - 0,0
22.06.2017 14:00:00 15,9 7,9 - 9 5 - - WSW - 0,0
22.06.2017 13:00:00 15,3 8,4 - 11 6 - - W - -
22.06.2017 12:00:00 14,4 9,6 - 15 8 - - NW - 0,0
22.06.2017 11:00:00 13,4 9,3 - 16 9 - - NW - 0,0
22.06.2017 10:00:00 13,4 9,3 - 18 10 - - NW 2,0 0,0
22.06.2017 09:00:00 13,0 9,5 - 18 10 - - NW - 0,0
22.06.2017 08:00:00 12,7 9,7 - 15 8 - - NW - 0,0
22.06.2017 07:00:00 12,1 9,7 - 16 9 - - NW - 0,0
22.06.2017 06:00:00 11,9 10,3 - 15 8 - - N - 0,0
22.06.2017 05:00:00 12,2 11,0 - 11 6 - - N - 0,0
22.06.2017 04:00:00 13,4 11,8 - 15 8 - - NNW - 0,0
22.06.2017 03:00:00 13,8 12,1 - 8 4 - - N - 0,0
22.06.2017 02:00:00 13,7 11,7 - 2 1 - - NW - 0,0
22.06.2017 01:00:00 13,8 11,4 - 13 7 - - NW - 0,0
22.06.2017 00:00:00 15,0 11,2 - 8 4 - - NW - 0,0
21.06.2017 23:00:00 15,9 12,4 - 2 1 - - W - 0,0
21.06.2017 22:00:00 17,1 12,9 - 22 12 - - WSW - 0,0
21.06.2017 21:00:00 19,1 13,9 - 9 5 - - WNW - 0,0
21.06.2017 20:00:00 20,4 15,5 - 13 7 - - S - 0,0
21.06.2017 19:00:00 22,1 15,7 - 5 3 - - SSE - 0,0
21.06.2017 18:00:00 20,3 15,8 - 11 6 - - S - 0,0
21.06.2017 17:00:00 20,9 15,9 - 21 11 - - S - 0,0
21.06.2017 16:00:00 21,4 14,4 - 21 11 - - S - 0,0
21.06.2017 15:00:00 21,1 14,5 - 15 8 - - SSE - 0,0
21.06.2017 14:00:00 20,3 13,7 - 22 12 - - SSE - 0,0
21.06.2017 13:00:00 20,2 13,4 - 16 9 - - SSE - 0,0
21.06.2017 12:00:00 18,3 12,8 - 18 10 - - S - 0,0
21.06.2017 11:00:00 18,0 12,2 - 18 10 - - SSE - 0,0
21.06.2017 10:00:00 17,4 12,1 17,5 15 8 - - SSE 12 0,0
21.06.2017 09:00:00 15,2 11,1 - 16 9 - - SSE - 0,0
21.06.2017 08:00:00 13,9 11,2 - 13 7 - - S - 0,0
21.06.2017 07:00:00 12,5 10,1 - 13 7 - - S - 0,0
21.06.2017 06:00:00 11,4 10,3 - 9 5 - - S - 0,0
21.06.2017 05:00:00 8,9 7,9 - 4 2 - - S - 0,0
21.06.2017 04:00:00 9,8 8,7 - 13 7 - - SSE - 0,0
21.06.2017 03:00:00 10,0 8,7 - 18 10 - - SSE - 0,0
21.06.2017 02:00:00 10,2 8,6 - 22 12 - - SE - 0,0
21.06.2017 01:00:00 10,1 8,2 - 21 11 - - SE - 0,0
21.06.2017 00:00:00 10,0 6,8 - 16 9 - - SE - 0,0
20.06.2017 23:00:00 9,3 7,6 - 13 7 - - SSE - 0,0
20.06.2017 22:00:00 10,9 7,9 - 16 9 - - SE - 0,0
20.06.2017 21:00:00 11,8 7,9 - 16 9 - - SE - 0,0
20.06.2017 20:00:00 13,2 7,7 - 16 9 - - SE - 0,0
20.06.2017 19:00:00 15,1 8,3 - 11 6 - - ESE - 0,0
20.06.2017 18:00:00 16,1 6,9 - 9 5 - - NNW - 0,0
20.06.2017 17:00:00 16,6 9,2 - 5 3 - - N - 0,0
20.06.2017 16:00:00 16,0 9,3 - 5 3 - - NNE - 0,0
20.06.2017 15:00:00 15,9 8,0 - 15 8 - - N - 0,0
20.06.2017 14:00:00 15,2 7,8 - 16 9 - - NW - 0,0
20.06.2017 13:00:00 13,6 8,3 - 16 9 - - NW - 0,0
20.06.2017 12:00:00 12,8 8,5 - 13 7 - - NW - 0,0
20.06.2017 11:00:00 13,3 8,5 - 18 10 - - NW - 0,0
20.06.2017 10:00:00 12,3 6,9 12,5 16 9 - - NW 18 0,0
20.06.2017 09:00:00 11,8 8,2 - 16 9 - - NW - 0,0
20.06.2017 08:00:00 11,3 8,2 - 21 11 - - NW - 0,0
20.06.2017 07:00:00 10,5 7,3 - 13 7 - - NW - 0,0
20.06.2017 06:00:00 9,7 7,0 - 9 5 - - WNW - 0,0
20.06.2017 05:00:00 9,6 7,2 - 13 7 - - WNW - 0,0
20.06.2017 04:00:00 9,4 6,4 - 4 2 - - WSW - 0,0
20.06.2017 03:00:00 9,4 5,6 - 4 2 - - SW - -
20.06.2017 02:00:00 9,5 5,4 - 2 1 - - W - 0,0
20.06.2017 01:00:00 9,8 4,8 - 18 10 - - WNW - 0,0
20.06.2017 00:00:00 9,5 4,2 - 5 3 - - WSW - 0,0
19.06.2017 23:00:00 9,8 5,3 - 21 11 - - NW - 0,0
19.06.2017 22:00:00 10,6 6,3 - 26 14 - - WNW - 0,0
19.06.2017 21:00:00 12,2 7,5 - 18 10 - - NW - 0,0
19.06.2017 20:00:00 12,2 7,0 - 22 12 - - WNW - 0,0
19.06.2017 19:00:00 14,0 8,5 - 22 12 - - NW - 0,0
19.06.2017 18:00:00 13,9 7,7 - 26 14 - - NW - 0,0
19.06.2017 17:00:00 15,0 8,0 - 24 13 46 25 NW - -
19.06.2017 16:00:00 15,9 9,4 - 22 12 - - NW - 0,0
19.06.2017 15:00:00 13,7 9,4 - 26 14 - - NNW - 0,0
19.06.2017 14:00:00 14,6 10,0 - 24 13 - - NW - 0,0
19.06.2017 13:00:00 16,0 11,2 - 18 10 - - WNW - 0,0
19.06.2017 12:00:00 13,2 10,7 - 2 1 - - ENE - 0,0
19.06.2017 11:00:00 12,0 10,5 - 5 3 - - W - 1,0
19.06.2017 10:00:00 11,2 9,9 12,7 41 22 - - N 0,4 0,4
19.06.2017 09:00:00 10,7 10,2 - 4 2 - - N - 0,4
19.06.2017 08:00:00 10,4 9,8 - 13 7 - - NNW - 1,0
19.06.2017 07:00:00 11,7 10,0 - 2 1 - - SSW - 0,0
19.06.2017 06:00:00 11,3 9,9 - 4 2 - - SSW - 0,0
19.06.2017 05:00:00 11,3 9,6 - 0 0 - - N - 0,0
19.06.2017 04:00:00 11,5 9,4 - 0 0 - - N - 0,0
19.06.2017 03:00:00 11,7 9,2 - 0 0 - - N - 0,0
19.06.2017 02:00:00 11,5 9,5 - 5 3 - - SSW - 0,0
19.06.2017 01:00:00 11,9 9,2 - 0 0 - - N - 0,0
19.06.2017 00:00:00 12,1 8,9 - 0 0 - - N - 0,0
18.06.2017 23:00:00 12,2 9,2 - 9 5 - - SW - 0,0
18.06.2017 22:00:00 12,6 9,1 - 13 7 - - W - 0,0
18.06.2017 21:00:00 13,2 9,1 - 13 7 - - W - 0,0
18.06.2017 20:00:00 13,9 9,1 - 16 9 - - WSW - 0,0
18.06.2017 19:00:00 16,1 9,8 - 16 9 - - W - 0,0
18.06.2017 18:00:00 14,8 9,4 - 16 9 - - W - 0,0
18.06.2017 17:00:00 15,8 9,2 - 21 11 - - W - 0,0
18.06.2017 16:00:00 16,0 8,6 - 26 14 - - W - 0,0
18.06.2017 15:00:00 16,4 8,8 - 28 15 - - WNW - 0,0
18.06.2017 14:00:00 16,1 8,8 - 28 15 - - W - 0,0
18.06.2017 13:00:00 15,5 8,5 - 18 10 - - W - 0,0
18.06.2017 12:00:00 16,0 8,5 - 24 13 - - W - 0,0
18.06.2017 11:00:00 16,1 8,6 - 22 12 - - W - 0,0
18.06.2017 10:00:00 14,5 8,7 14,5 21 11 - - W 1,4 0,0
18.06.2017 09:00:00 14,2 8,9 - 22 12 - - W - 0,0
18.06.2017 08:00:00 13,6 10,0 - 22 12 - - WNW - 0,0
18.06.2017 07:00:00 13,0 10,5 - 9 5 - - W - 0,0
18.06.2017 06:00:00 12,7 10,9 - 13 7 - - W - 0,0
18.06.2017 05:00:00 12,2 10,9 - 4 2 - - NNW - 0,0
18.06.2017 04:00:00 12,8 11,6 - 0 0 - - N - 0,0

tt = temperature
td = dewpoint
tt 5cm = temperature 5cm
ff = wind speed
fx = gusts
dd = wind direction
vv = visibility
rr = precipitation

Next stations